Time;durP1;ratioP1;P1;durP2;ratioP2;P2;SDS_P1;SDS_P2;PMS_P1;PMS_P2;Temp;Humidity;BMP_temperature;BMP_pressure;BME280_temperature;BME280_humidity;BME280_pressure;Samples;Min_cycle;Max_cycle;Signal;HPM_P1;HPM_P2
2022/01/19 00:00:45;;;;;;;;;;;-1.40;99.90;;;;;;4239785;27;19931;-51
2022/01/19 00:02:47;;;;;;;;;;;-1.40;99.90;;;;;;4233730;27;19934;-50
2022/01/19 00:04:49;;;;;;;;;;;-1.50;99.90;;;;;;4235076;27;19934;-49
2022/01/19 00:06:51;;;;;;;;;;;-1.40;99.90;;;;;;4228070;28;19974;-52
2022/01/19 00:08:53;;;;;;;;;;;-1.50;99.90;;;;;;4236435;27;19931;-51
2022/01/19 00:10:55;;;;;;;;;;;-1.70;99.90;;;;;;4231350;27;20443;-49
2022/01/19 00:12:57;;;;;;;;;;;-1.80;99.90;;;;;;4218015;28;19928;-51
2022/01/19 00:15:00;;;;;;;;;;;-1.60;99.90;;;;;;4239925;27;19923;-51
2022/01/19 00:17:02;;;;;;;;;;;-1.60;99.90;;;;;;4234348;27;19932;-51
2022/01/19 00:19:04;;;;;;;;;;;-1.60;99.90;;;;;;4230305;27;19985;-51
2022/01/19 00:21:05;;;;;;;;;;;-1.40;99.90;;;;;;4231607;27;19971;-52
2022/01/19 00:23:09;;;;;;;;;;;-1.40;99.90;;;;;;4225426;28;19982;-51
2022/01/19 00:25:11;;;;;;;;;;;-1.40;99.90;;;;;;4231188;27;20276;-51
2022/01/19 00:27:13;;;;;;;;;;;-1.20;99.90;;;;;;4234957;27;20018;-51
2022/01/19 00:29:15;;;;;;;;;;;-1.20;99.90;;;;;;4232690;27;19939;-52
2022/01/19 00:31:17;;;;;;;;;;;-1.20;99.90;;;;;;4244794;27;19924;-51
2022/01/19 00:33:19;;;;;;;;;;;-1.30;99.90;;;;;;4233540;27;19928;-51
2022/01/19 00:35:21;;;;;;;;;;;-1.30;99.90;;;;;;4244991;27;19928;-51
2022/01/19 00:37:23;;;;;;;;;;;-1.30;99.90;;;;;;4217900;28;20024;-51
2022/01/19 00:39:31;;;;;;;;;;;-1.30;99.90;;;;;;4229182;27;19924;-48
2022/01/19 00:41:33;;;;;;;;;;;-1.40;99.90;;;;;;4233674;27;20006;-52
2022/01/19 00:43:36;;;;;;;;;;;-1.40;99.90;;;;;;4243856;27;20226;-52
2022/01/19 00:45:38;;;;;;;;;;;-1.40;99.90;;;;;;4232444;27;19924;-50
2022/01/19 00:47:58;;;;;;;;;;;-1.50;99.90;;;;;;4214892;27;20411;-51
2022/01/19 00:50:00;;;;;;;;;;;-1.60;99.90;;;;;;4233768;27;19962;-52
2022/01/19 00:52:02;;;;;;;;;;;-1.80;99.90;;;;;;4242449;27;19985;-51
2022/01/19 00:54:04;;;;;;;;;;;-1.90;99.90;;;;;;4230202;28;19928;-52
2022/01/19 00:56:06;;;;;;;;;;;-1.90;99.90;;;;;;4235035;27;19968;-51
2022/01/19 00:58:08;;;;;;;;;;;-2.00;99.90;;;;;;4229926;27;19975;-51
2022/01/19 01:00:12;;;;;;;;;;;-1.90;99.90;;;;;;4238908;27;19963;-50
2022/01/19 01:02:14;;;;;;;;;;;-1.80;99.90;;;;;;4230264;28;20375;-50
2022/01/19 01:04:17;;;;;;;;;;;-1.80;99.90;;;;;;4229207;28;19962;-51
2022/01/19 01:06:19;;;;;;;;;;;-1.70;99.90;;;;;;4235604;28;20001;-51
2022/01/19 01:08:21;;;;;;;;;;;-1.50;99.90;;;;;;4240868;28;19985;-52
2022/01/19 01:10:23;;;;;;;;;;;-1.50;99.90;;;;;;4230905;27;19928;-51
2022/01/19 01:12:41;;;;;;;;;;;-1.30;99.90;;;;;;4235302;28;19932;-52
2022/01/19 01:18:17;;;;;;;;;;;-1.20;99.90;;;;;;4237110;28;19967;-52
2022/01/19 01:19:34;;;;;;;;;;;-1.20;99.90;;;;;;4244627;27;20010;-51
2022/01/19 01:21:37;;;;;;;;;;;-1.20;99.90;;;;;;4239761;27;19927;-50
2022/01/19 01:23:39;;;;;;;;;;;-1.40;99.90;;;;;;4213516;28;19958;-52
2022/01/19 01:25:43;;;;;;;;;;;-1.60;99.90;;;;;;4235707;27;19923;-50
2022/01/19 01:27:46;;;;;;;;;;;-1.90;99.90;;;;;;4247355;27;19942;-51
2022/01/19 01:29:48;;;;;;;;;;;-1.90;99.90;;;;;;4235766;27;20093;-51
2022/01/19 01:31:50;;;;;;;;;;;-1.80;99.90;;;;;;4243718;27;19923;-50
2022/01/19 01:33:52;;;;;;;;;;;-1.80;99.90;;;;;;4236783;27;20587;-50
2022/01/19 01:35:54;;;;;;;;;;;-1.70;99.90;;;;;;4234424;27;20442;-49
2022/01/19 01:37:56;;;;;;;;;;;-1.70;99.90;;;;;;4234915;27;19966;-51
2022/01/19 01:40:00;;;;;;;;;;;-1.60;99.90;;;;;;4228849;28;19978;-51
2022/01/19 01:42:12;;;;;;;;;;;-1.80;99.90;;;;;;4235131;27;19932;-51
2022/01/19 01:44:14;;;;;;;;;;;-1.80;99.90;;;;;;4221136;28;19935;-51
2022/01/19 01:46:32;;;;;;;;;;;-1.90;99.90;;;;;;4237453;27;19923;-51
2022/01/19 01:48:42;;;;;;;;;;;-2.10;99.90;;;;;;4245232;27;19970;-48
2022/01/19 01:53:26;;;;;;;;;;;-1.90;99.90;;;;;;4233731;27;19959;-50
2022/01/19 01:55:28;;;;;;;;;;;-2.00;99.90;;;;;;4244495;27;19976;-48
2022/01/19 01:57:30;;;;;;;;;;;-1.90;99.90;;;;;;4242338;27;19989;-52
2022/01/19 01:59:35;;;;;;;;;;;-1.90;99.90;;;;;;4216665;28;20732;-50
2022/01/19 02:01:38;;;;;;;;;;;-1.90;99.90;;;;;;4238095;27;19955;-51
2022/01/19 02:03:42;;;;;;;;;;;-1.90;99.90;;;;;;4244243;27;19957;-51
2022/01/19 02:06:06;;;;;;;;;;;-2.00;99.90;;;;;;4239644;27;20379;-51
2022/01/19 02:08:17;;;;;;;;;;;-2.10;99.90;;;;;;4240853;27;19923;-51
2022/01/19 02:10:33;;;;;;;;;;;-2.30;99.90;;;;;;4235427;27;19928;-50
2022/01/19 02:22:04;;;;;;;;;;;-2.40;99.90;;;;;;4235019;27;19923;-51
2022/01/19 02:24:09;;;;;;;;;;;-2.40;99.90;;;;;;4229565;28;19934;-51
2022/01/19 02:26:18;;;;;;;;;;;-2.40;99.90;;;;;;4232612;27;19931;-52
2022/01/19 02:40:14;;;;;;;;;;;-2.40;99.90;;;;;;4224761;27;19955;-51
2022/01/19 02:42:19;;;;;;;;;;;-2.30;99.90;;;;;;4234678;27;20068;-52
2022/01/19 02:44:37;;;;;;;;;;;-2.20;99.90;;;;;;4245788;27;19927;-51
2022/01/19 02:49:16;;;;;;;;;;;-2.20;99.90;;;;;;4211297;27;19974;-51
2022/01/19 02:51:18;;;;;;;;;;;-2.30;99.90;;;;;;4236311;27;19923;-49
2022/01/19 02:53:20;;;;;;;;;;;-2.50;99.90;;;;;;4240772;27;19924;-51
2022/01/19 02:55:22;;;;;;;;;;;-2.60;99.90;;;;;;4240311;27;20014;-50
2022/01/19 02:57:26;;;;;;;;;;;-2.60;99.90;;;;;;4240504;27;19927;-51
2022/01/19 03:00:01;;;;;;;;;;;-2.60;99.90;;;;;;4222257;27;19935;-50
2022/01/19 03:09:01;;;;;;;;;;;-2.40;99.90;;;;;;4230661;27;19963;-49
2022/01/19 03:11:03;;;;;;;;;;;-2.40;99.90;;;;;;4236067;27;20279;-49
2022/01/19 03:13:05;;;;;;;;;;;-2.30;99.90;;;;;;4244070;27;19934;-48
2022/01/19 03:15:07;;;;;;;;;;;-2.30;99.90;;;;;;4216177;28;19923;-51
2022/01/19 03:17:12;;;;;;;;;;;-2.40;99.90;;;;;;4243764;27;19939;-50
2022/01/19 03:19:14;;;;;;;;;;;-2.30;99.90;;;;;;4232222;27;19931;-51
2022/01/19 03:21:17;;;;;;;;;;;-2.40;99.90;;;;;;4230360;27;19935;-51
2022/01/19 03:23:20;;;;;;;;;;;-2.40;99.90;;;;;;4235643;27;19924;-48
2022/01/19 03:25:22;;;;;;;;;;;-2.50;99.90;;;;;;4242516;27;20056;-48
2022/01/19 03:27:24;;;;;;;;;;;-2.60;99.90;;;;;;4233192;27;19932;-51
2022/01/19 03:29:26;;;;;;;;;;;-2.60;99.90;;;;;;4217462;28;19924;-50
2022/01/19 03:31:28;;;;;;;;;;;-2.70;99.90;;;;;;4230919;27;19966;-51
2022/01/19 03:33:30;;;;;;;;;;;-2.80;99.90;;;;;;4224501;28;19928;-52
2022/01/19 03:35:32;;;;;;;;;;;-2.80;99.90;;;;;;4237054;27;19988;-51
2022/01/19 03:37:34;;;;;;;;;;;-2.60;99.90;;;;;;4239641;27;20029;-50
2022/01/19 03:39:37;;;;;;;;;;;-2.60;99.90;;;;;;4235224;27;19936;-52
2022/01/19 03:41:38;;;;;;;;;;;-2.70;99.90;;;;;;4244032;27;19936;-50
2022/01/19 03:43:41;;;;;;;;;;;-2.90;99.90;;;;;;4228045;27;19967;-51
2022/01/19 03:45:51;;;;;;;;;;;-3.00;99.90;;;;;;4237191;27;19970;-49
2022/01/19 03:48:08;;;;;;;;;;;-2.70;99.90;;;;;;4240925;27;19934;-48
2022/01/19 03:50:12;;;;;;;;;;;-2.60;99.90;;;;;;4224124;27;20001;-48
2022/01/19 03:52:13;;;;;;;;;;;-2.50;99.90;;;;;;4241234;27;20377;-49
2022/01/19 03:54:15;;;;;;;;;;;-2.50;99.90;;;;;;4238980;27;20444;-52
2022/01/19 03:56:17;;;;;;;;;;;-2.70;99.90;;;;;;4231047;27;19942;-51
2022/01/19 03:58:19;;;;;;;;;;;-2.80;99.90;;;;;;4234446;27;19934;-52
2022/01/19 04:00:21;;;;;;;;;;;-2.80;99.90;;;;;;4230738;27;19977;-50
2022/01/19 04:02:23;;;;;;;;;;;-2.80;99.90;;;;;;4239189;27;20475;-51
2022/01/19 04:04:43;;;;;;;;;;;-2.80;99.90;;;;;;4240065;27;20014;-50
2022/01/19 04:07:09;;;;;;;;;;;-2.70;99.90;;;;;;4233577;27;20026;-48
2022/01/19 04:09:11;;;;;;;;;;;-2.80;99.90;;;;;;4227734;28;19962;-50
2022/01/19 04:11:15;;;;;;;;;;;-2.80;99.90;;;;;;4235925;27;20029;-49
2022/01/19 04:13:31;;;;;;;;;;;-3.00;99.90;;;;;;4244797;27;20135;-50
2022/01/19 04:15:33;;;;;;;;;;;-3.10;99.90;;;;;;4234668;27;19939;-51
2022/01/19 04:17:37;;;;;;;;;;;-3.10;99.90;;;;;;4237932;27;20284;-50
2022/01/19 04:19:48;;;;;;;;;;;-3.20;99.90;;;;;;4232488;27;20014;-50
2022/01/19 04:21:51;;;;;;;;;;;-3.20;99.90;;;;;;4244476;27;19935;-51
2022/01/19 04:23:52;;;;;;;;;;;-3.20;99.90;;;;;;4230399;27;20399;-51
2022/01/19 04:25:54;;;;;;;;;;;-3.20;99.90;;;;;;4229420;27;19959;-51
2022/01/19 04:27:56;;;;;;;;;;;-3.20;99.90;;;;;;4232287;27;19928;-51
2022/01/19 04:30:10;;;;;;;;;;;-3.20;99.90;;;;;;4234072;27;19923;-52
2022/01/19 04:32:17;;;;;;;;;;;-3.20;99.90;;;;;;4236826;27;19927;-49
2022/01/19 04:34:19;;;;;;;;;;;-3.10;99.90;;;;;;4243345;27;19962;-51
2022/01/19 04:45:52;;;;;;;;;;;-2.90;99.90;;;;;;4231896;27;19971;-50
2022/01/19 05:01:41;;;;;;;;;;;-2.70;99.90;;;;;;4232644;28;19935;-50
2022/01/19 05:04:06;;;;;;;;;;;-2.80;99.90;;;;;;4233034;27;19928;-51
2022/01/19 05:06:13;;;;;;;;;;;-2.80;99.90;;;;;;4229031;27;19935;-48
2022/01/19 05:15:06;;;;;;;;;;;-3.20;99.90;;;;;;4236451;28;19928;-51
2022/01/19 05:17:11;;;;;;;;;;;-3.30;99.90;;;;;;4231669;28;19934;-51
2022/01/19 05:19:13;;;;;;;;;;;-3.40;99.90;;;;;;4232479;28;19928;-50
2022/01/19 05:21:16;;;;;;;;;;;-3.40;99.90;;;;;;4252959;27;20651;-51
2022/01/19 05:23:18;;;;;;;;;;;-3.60;99.90;;;;;;4237544;28;20361;-49
2022/01/19 05:25:20;;;;;;;;;;;-3.50;99.90;;;;;;4238165;28;20018;-51
2022/01/19 05:27:22;;;;;;;;;;;-3.40;99.90;;;;;;4230545;28;19935;-48
2022/01/19 05:29:24;;;;;;;;;;;-3.50;99.90;;;;;;4240314;28;20375;-49
2022/01/19 05:31:26;;;;;;;;;;;-3.60;99.90;;;;;;4234980;28;20323;-48
2022/01/19 05:33:28;;;;;;;;;;;-3.70;99.90;;;;;;4216746;28;20026;-51
2022/01/19 05:35:30;;;;;;;;;;;-3.70;99.90;;;;;;4235685;28;19935;-51
2022/01/19 05:37:36;;;;;;;;;;;-3.60;99.90;;;;;;4240991;28;20611;-50
2022/01/19 05:39:38;;;;;;;;;;;-3.60;99.90;;;;;;4236325;28;19924;-50
2022/01/19 05:41:40;;;;;;;;;;;-3.60;99.90;;;;;;4242779;28;20000;-50
2022/01/19 05:43:42;;;;;;;;;;;-3.60;99.90;;;;;;4235018;28;19980;-51
2022/01/19 05:45:44;;;;;;;;;;;-3.60;99.90;;;;;;4239778;28;19975;-50
2022/01/19 05:47:47;;;;;;;;;;;-3.60;99.90;;;;;;4230227;28;19938;-51
2022/01/19 05:49:49;;;;;;;;;;;-3.70;99.90;;;;;;4243727;28;19930;-51
2022/01/19 05:51:51;;;;;;;;;;;-3.80;99.90;;;;;;4235790;28;19947;-51
2022/01/19 05:53:53;;;;;;;;;;;-3.90;99.90;;;;;;4226809;28;19936;-49
2022/01/19 05:55:55;;;;;;;;;;;-3.90;99.90;;;;;;4233802;28;20457;-49
2022/01/19 05:57:57;;;;;;;;;;;-3.80;99.90;;;;;;4228488;28;19935;-51
2022/01/19 05:59:59;;;;;;;;;;;-3.70;99.90;;;;;;4235926;28;20464;-50
2022/01/19 06:02:01;;;;;;;;;;;-3.60;99.90;;;;;;4236507;28;19973;-49
2022/01/19 06:04:03;;;;;;;;;;;-3.50;99.90;;;;;;4235646;28;19957;-49
2022/01/19 06:06:05;;;;;;;;;;;-3.50;99.90;;;;;;4237223;27;19958;-49
2022/01/19 06:08:40;;;;;;;;;;;-3.40;99.90;;;;;;4236467;27;19931;-51
2022/01/19 06:10:44;;;;;;;;;;;-3.40;99.90;;;;;;4241993;27;19923;-49
2022/01/19 06:12:45;;;;;;;;;;;-3.40;99.90;;;;;;4236880;27;20084;-51
2022/01/19 06:14:47;;;;;;;;;;;-3.40;99.90;;;;;;4236039;27;19963;-51
2022/01/19 06:16:49;;;;;;;;;;;-3.50;99.90;;;;;;4240524;27;19935;-50
2022/01/19 06:18:51;;;;;;;;;;;-3.50;99.90;;;;;;4220443;28;19977;-51
2022/01/19 06:20:53;;;;;;;;;;;-3.60;99.90;;;;;;4237803;27;20536;-51
2022/01/19 06:22:55;;;;;;;;;;;-3.70;99.90;;;;;;4235199;27;19928;-51
2022/01/19 06:24:57;;;;;;;;;;;-3.70;99.90;;;;;;4233371;27;19928;-51
2022/01/19 06:26:59;;;;;;;;;;;-3.70;99.90;;;;;;4241990;27;19946;-49
2022/01/19 06:29:02;;;;;;;;;;;-3.70;99.90;;;;;;4239202;27;19924;-48
2022/01/19 06:31:05;;;;;;;;;;;-3.70;99.90;;;;;;4241141;27;19935;-49
2022/01/19 06:33:07;;;;;;;;;;;-3.70;99.90;;;;;;4242714;27;19938;-49
2022/01/19 06:35:13;;;;;;;;;;;-3.70;99.90;;;;;;4240291;27;19980;-50
2022/01/19 06:37:15;;;;;;;;;;;-3.80;99.90;;;;;;4242744;27;19924;-51
2022/01/19 06:39:17;;;;;;;;;;;-3.80;99.90;;;;;;4234177;27;19939;-51
2022/01/19 06:41:19;;;;;;;;;;;-3.80;99.90;;;;;;4233720;27;19923;-50
2022/01/19 06:43:21;;;;;;;;;;;-3.80;99.90;;;;;;4238919;27;20358;-51
2022/01/19 06:45:23;;;;;;;;;;;-3.80;99.90;;;;;;4240538;27;19941;-51
2022/01/19 06:47:25;;;;;;;;;;;-3.80;99.90;;;;;;4239177;27;19924;-51
2022/01/19 06:49:27;;;;;;;;;;;-3.80;99.90;;;;;;4234834;27;19927;-51
2022/01/19 06:51:29;;;;;;;;;;;-3.80;99.90;;;;;;4234864;27;19959;-49
2022/01/19 06:53:31;;;;;;;;;;;-3.70;99.90;;;;;;4243169;27;19923;-50
2022/01/19 06:55:33;;;;;;;;;;;-3.70;99.90;;;;;;4238835;27;20274;-50
2022/01/19 06:57:35;;;;;;;;;;;-3.70;99.90;;;;;;4245392;27;20528;-51
2022/01/19 06:59:37;;;;;;;;;;;-3.60;99.90;;;;;;4233349;27;19927;-50
2022/01/19 07:01:39;;;;;;;;;;;-3.50;99.90;;;;;;4240737;27;19927;-49
2022/01/19 07:03:41;;;;;;;;;;;-3.60;99.90;;;;;;4233831;27;20338;-49
2022/01/19 07:05:42;;;;;;;;;;;-3.60;99.90;;;;;;4241993;27;19934;-48
2022/01/19 07:07:44;;;;;;;;;;;-3.50;99.90;;;;;;4233709;27;20422;-47
2022/01/19 07:09:46;;;;;;;;;;;-3.60;99.90;;;;;;4240003;27;20264;-46
2022/01/19 07:11:49;;;;;;;;;;;-3.60;99.90;;;;;;4235381;27;20353;-51
2022/01/19 07:13:51;;;;;;;;;;;-3.60;99.90;;;;;;4245700;27;19973;-48
2022/01/19 07:15:53;;;;;;;;;;;-3.60;99.90;;;;;;4235172;27;19971;-49
2022/01/19 07:17:55;;;;;;;;;;;-3.50;99.90;;;;;;4241419;27;20409;-50
2022/01/19 07:19:57;;;;;;;;;;;-3.50;99.90;;;;;;4233670;27;19978;-49
2022/01/19 07:21:59;;;;;;;;;;;-3.50;99.90;;;;;;4245031;27;19927;-49
2022/01/19 07:24:01;;;;;;;;;;;-3.40;99.90;;;;;;4237634;27;20426;-51
2022/01/19 07:26:02;;;;;;;;;;;-3.40;99.90;;;;;;4244210;27;19969;-51
2022/01/19 07:28:10;;;;;;;;;;;-3.50;99.90;;;;;;4237297;27;20015;-51
2022/01/19 07:30:13;;;;;;;;;;;-3.60;99.90;;;;;;4244417;27;19970;-51
2022/01/19 07:32:14;;;;;;;;;;;-3.50;99.90;;;;;;4235013;27;20006;-50
2022/01/19 07:34:16;;;;;;;;;;;-3.50;99.90;;;;;;4243210;27;19923;-50
2022/01/19 07:36:18;;;;;;;;;;;-3.50;99.90;;;;;;4233761;27;19924;-50
2022/01/19 07:38:22;;;;;;;;;;;-3.50;99.90;;;;;;4245149;27;20398;-49
2022/01/19 07:40:25;;;;;;;;;;;-3.40;99.90;;;;;;4237426;27;19990;-49
2022/01/19 07:42:27;;;;;;;;;;;-3.30;99.90;;;;;;4235733;27;20023;-49
2022/01/19 07:44:29;;;;;;;;;;;-3.30;99.90;;;;;;4235467;27;19972;-48
2022/01/19 07:46:31;;;;;;;;;;;-3.30;99.90;;;;;;4242764;27;20331;-51
2022/01/19 07:48:33;;;;;;;;;;;-3.30;99.90;;;;;;4237520;27;20436;-50
2022/01/19 07:50:35;;;;;;;;;;;-3.30;99.90;;;;;;4235768;27;20387;-52
2022/01/19 07:52:37;;;;;;;;;;;-3.20;99.90;;;;;;4236827;27;19924;-51
2022/01/19 07:54:38;;;;;;;;;;;-3.30;99.90;;;;;;4241865;27;20337;-49
2022/01/19 07:56:41;;;;;;;;;;;-3.30;99.90;;;;;;4221841;28;19993;-52
2022/01/19 07:58:42;;;;;;;;;;;-3.10;99.90;;;;;;4202999;28;19928;-50
2022/01/19 08:00:45;;;;;;;;;;;-3.00;99.90;;;;;;4239127;27;19931;-52
2022/01/19 08:02:49;;;;;;;;;;;-2.80;99.90;;;;;;4235808;27;20468;-50
2022/01/19 08:04:51;;;;;;;;;;;-2.70;99.90;;;;;;4239601;27;20014;-51
2022/01/19 08:06:54;;;;;;;;;;;-2.60;99.90;;;;;;4239286;27;20423;-50
2022/01/19 08:08:56;;;;;;;;;;;-2.50;99.90;;;;;;4221368;28;19924;-50
2022/01/19 08:10:57;;;;;;;;;;;-2.50;99.90;;;;;;4237485;27;19924;-52
2022/01/19 08:13:03;;;;;;;;;;;-2.40;99.90;;;;;;4238250;27;20464;-49
2022/01/19 08:15:05;;;;;;;;;;;-2.30;99.90;;;;;;4239218;27;20280;-49
2022/01/19 08:17:07;;;;;;;;;;;-2.20;99.90;;;;;;4244050;27;20758;-51
2022/01/19 08:19:09;;;;;;;;;;;-2.20;99.90;;;;;;4233726;27;20362;-51
2022/01/19 08:21:11;;;;;;;;;;;-2.20;99.90;;;;;;4242576;27;19932;-52
2022/01/19 08:23:13;;;;;;;;;;;-2.10;99.90;;;;;;4228636;27;20022;-51
2022/01/19 08:25:15;;;;;;;;;;;-2.00;99.90;;;;;;4228472;27;20310;-50
2022/01/19 08:27:17;;;;;;;;;;;-2.00;99.90;;;;;;4231124;27;19931;-50
2022/01/19 08:29:20;;;;;;;;;;;-2.00;99.90;;;;;;4235312;27;19934;-51
2022/01/19 08:31:22;;;;;;;;;;;-2.00;99.90;;;;;;4234275;27;19924;-51
2022/01/19 08:33:24;;;;;;;;;;;-2.00;99.90;;;;;;4242697;27;19959;-48
2022/01/19 08:35:26;;;;;;;;;;;-2.00;99.90;;;;;;4234521;27;19927;-50
2022/01/19 08:37:28;;;;;;;;;;;-1.90;99.90;;;;;;4242687;27;19928;-50
2022/01/19 08:39:30;;;;;;;;;;;-1.80;99.90;;;;;;4220713;27;20311;-51
2022/01/19 08:41:32;;;;;;;;;;;-1.80;99.90;;;;;;4240958;27;19946;-50
2022/01/19 08:43:33;;;;;;;;;;;-1.80;99.90;;;;;;4233204;27;19965;-50
2022/01/19 08:45:36;;;;;;;;;;;-1.80;99.90;;;;;;4243009;27;20387;-51
2022/01/19 08:47:39;;;;;;;;;;;-1.80;99.90;;;;;;4235876;27;20656;-51
2022/01/19 08:49:41;;;;;;;;;;;-1.70;99.90;;;;;;4244228;27;19928;-51
2022/01/19 08:51:43;;;;;;;;;;;-1.50;99.90;;;;;;4232770;27;19963;-49
2022/01/19 08:53:44;;;;;;;;;;;-1.50;99.90;;;;;;4225996;28;19947;-51
2022/01/19 08:55:48;;;;;;;;;;;-1.40;99.90;;;;;;4218597;28;20358;-51
2022/01/19 08:57:51;;;;;;;;;;;-1.40;99.90;;;;;;4243845;27;20387;-48
2022/01/19 08:59:53;;;;;;;;;;;-1.30;99.90;;;;;;4235111;27;19924;-51
2022/01/19 09:01:55;;;;;;;;;;;-1.30;99.90;;;;;;4224947;28;19967;-49
2022/01/19 09:03:56;;;;;;;;;;;-1.20;99.90;;;;;;4230395;28;20435;-51
2022/01/19 09:05:58;;;;;;;;;;;-1.10;99.90;;;;;;4244057;27;20018;-51
2022/01/19 09:08:00;;;;;;;;;;;-1.00;99.90;;;;;;4233230;27;19928;-49
2022/01/19 09:10:03;;;;;;;;;;;-0.90;99.90;;;;;;4242914;28;19946;-51
2022/01/19 09:12:05;;;;;;;;;;;-0.90;99.90;;;;;;4235513;28;19934;-51
2022/01/19 09:14:08;;;;;;;;;;;-0.80;99.90;;;;;;4241277;28;19982;-52
2022/01/19 09:16:10;;;;;;;;;;;-0.70;99.90;;;;;;4234831;28;19924;-51
2022/01/19 09:18:12;;;;;;;;;;;-0.60;99.90;;;;;;4233957;28;19974;-51
2022/01/19 09:20:14;;;;;;;;;;;-0.40;99.90;;;;;;4235810;27;19923;-51
2022/01/19 09:22:16;;;;;;;;;;;-0.30;99.90;;;;;;4228295;28;19924;-48
2022/01/19 09:24:18;;;;;;;;;;;-0.10;99.90;;;;;;4228239;28;19932;-51
2022/01/19 09:26:20;;;;;;;;;;;0.00;99.90;;;;;;4240283;27;20352;-51
2022/01/19 09:28:22;;;;;;;;;;;0.10;99.90;;;;;;4237372;28;20430;-51
2022/01/19 09:30:25;;;;;;;;;;;0.30;99.90;;;;;;4239057;27;19953;-51
2022/01/19 09:32:28;;;;;;;;;;;0.30;99.90;;;;;;4239265;28;19974;-52
2022/01/19 09:34:30;;;;;;;;;;;0.50;99.90;;;;;;4237152;28;20354;-51
2022/01/19 09:36:44;;;;;;;;;;;0.60;99.90;;;;;;4237843;28;20840;-51
2022/01/19 09:38:46;;;;;;;;;;;0.70;99.90;;;;;;4233585;28;19928;-52
2022/01/19 09:40:50;;;;;;;;;;;0.90;99.90;;;;;;4239496;27;20026;-51
2022/01/19 09:42:52;;;;;;;;;;;1.00;99.90;;;;;;4214804;28;20131;-51
2022/01/19 09:44:54;;;;;;;;;;;1.10;99.90;;;;;;4233418;27;20346;-51
2022/01/19 09:46:56;;;;;;;;;;;1.20;99.90;;;;;;4242230;27;19977;-52
2022/01/19 09:48:59;;;;;;;;;;;1.30;99.90;;;;;;4243756;27;19952;-52
2022/01/19 09:51:01;;;;;;;;;;;1.50;99.90;;;;;;4237775;27;20403;-51
2022/01/19 09:53:04;;;;;;;;;;;1.70;99.90;;;;;;4244477;27;19959;-52
2022/01/19 09:55:06;;;;;;;;;;;1.80;99.90;;;;;;4230532;27;19927;-51
2022/01/19 09:57:08;;;;;;;;;;;1.90;99.90;;;;;;4239803;27;19959;-53
2022/01/19 09:59:13;;;;;;;;;;;1.90;99.90;;;;;;4240273;27;19980;-52
2022/01/19 10:01:16;;;;;;;;;;;2.00;99.90;;;;;;4223541;28;19963;-50
2022/01/19 10:03:21;;;;;;;;;;;2.20;99.90;;;;;;4237493;27;20010;-52
2022/01/19 10:05:23;;;;;;;;;;;2.30;99.90;;;;;;4243963;27;19977;-52
2022/01/19 10:07:27;;;;;;;;;;;2.50;99.90;;;;;;4239259;27;19927;-53
2022/01/19 10:09:29;;;;;;;;;;;2.60;99.90;;;;;;4227062;28;19931;-52
2022/01/19 10:18:25;;;;;;;;;;;3.20;99.90;;;;;;4218028;28;19928;-52
2022/01/19 10:20:27;;;;;;;;;;;3.30;99.90;;;;;;4224972;28;19924;-52
2022/01/19 10:22:31;;;;;;;;;;;3.50;99.90;;;;;;4222868;28;19928;-53
2022/01/19 10:24:33;;;;;;;;;;;3.70;99.90;;;;;;4225545;28;19924;-53
2022/01/19 10:26:35;;;;;;;;;;;3.80;99.90;;;;;;4223108;28;19928;-51
2022/01/19 10:29:13;;;;;;;;;;;4.00;99.90;;;;;;4223852;28;19923;-54
2022/01/19 10:31:18;;;;;;;;;;;4.10;99.90;;;;;;4197595;28;20003;-52
2022/01/19 10:33:20;;;;;;;;;;;4.30;99.90;;;;;;4207110;28;19932;-53
2022/01/19 10:35:30;;;;;;;;;;;4.40;99.90;;;;;;4200263;28;20060;-52
2022/01/19 10:37:32;;;;;;;;;;;4.60;99.90;;;;;;4205515;28;20016;-53
2022/01/19 10:39:41;;;;;;;;;;;4.70;99.90;;;;;;4188532;28;19929;-53
2022/01/19 10:42:03;;;;;;;;;;;4.70;99.90;;;;;;4203284;28;20055;-53
2022/01/19 10:44:05;;;;;;;;;;;4.90;99.90;;;;;;4199202;28;19924;-52
2022/01/19 10:46:15;;;;;;;;;;;5.10;99.90;;;;;;4202010;28;19969;-52
2022/01/19 10:48:37;;;;;;;;;;;5.10;99.90;;;;;;4198048;28;19959;-53
2022/01/19 10:50:39;;;;;;;;;;;5.40;99.90;;;;;;4200572;28;20434;-53
2022/01/19 10:52:43;;;;;;;;;;;5.60;99.90;;;;;;4198773;28;20007;-53
2022/01/19 10:54:48;;;;;;;;;;;5.70;99.90;;;;;;4198178;28;20388;-53
2022/01/19 10:56:54;;;;;;;;;;;5.80;99.90;;;;;;4201787;28;19971;-52
2022/01/19 10:58:57;;;;;;;;;;;5.90;99.90;;;;;;4202467;28;19928;-53
2022/01/19 11:01:00;;;;;;;;;;;6.10;99.90;;;;;;4199515;28;19928;-53
2022/01/19 11:03:17;;;;;;;;;;;6.30;99.90;;;;;;4200706;28;20399;-54
2022/01/19 11:05:39;;;;;;;;;;;6.40;99.90;;;;;;4206734;28;19939;-53
2022/01/19 11:07:41;;;;;;;;;;;6.60;99.90;;;;;;4224371;28;19975;-53
2022/01/19 11:09:56;;;;;;;;;;;7.00;99.90;;;;;;4229107;27;19928;-53
2022/01/19 11:12:05;;;;;;;;;;;7.20;99.90;;;;;;4237363;27;19924;-54
2022/01/19 11:14:08;;;;;;;;;;;7.60;99.90;;;;;;4233230;27;19971;-53
2022/01/19 11:16:10;;;;;;;;;;;7.70;99.90;;;;;;4244304;27;19924;-53
2022/01/19 11:18:12;;;;;;;;;;;8.30;99.90;;;;;;4234328;27;20028;-53
2022/01/19 11:20:16;;;;;;;;;;;8.40;98.60;;;;;;4244267;27;19984;-53
2022/01/19 11:22:21;;;;;;;;;;;8.30;99.60;;;;;;4233337;27;19947;-53
2022/01/19 11:24:34;;;;;;;;;;;8.80;99.90;;;;;;4245400;27;19923;-53
2022/01/19 11:26:36;;;;;;;;;;;9.20;99.90;;;;;;4232052;27;19935;-52
2022/01/19 11:28:40;;;;;;;;;;;9.40;98.50;;;;;;4238496;27;19927;-53
2022/01/19 11:30:46;;;;;;;;;;;9.40;97.40;;;;;;4234789;27;19927;-52
2022/01/19 11:33:24;;;;;;;;;;;9.10;96.40;;;;;;4238690;27;19927;-53
2022/01/19 11:35:35;;;;;;;;;;;8.90;97.40;;;;;;4183803;27;19931;-52
2022/01/19 11:37:39;;;;;;;;;;;9.40;98.10;;;;;;4236023;27;19969;-53
2022/01/19 11:40:00;;;;;;;;;;;9.20;95.30;;;;;;4235423;27;20011;-53
2022/01/19 11:42:07;;;;;;;;;;;9.40;95.60;;;;;;4232508;27;19964;-52
2022/01/19 11:44:14;;;;;;;;;;;9.50;95.30;;;;;;4234602;27;19970;-53
2022/01/19 11:46:29;;;;;;;;;;;9.30;94.70;;;;;;4241976;27;19946;-53
2022/01/19 11:48:35;;;;;;;;;;;9.50;94.80;;;;;;4228053;28;19924;-54
2022/01/19 11:50:37;;;;;;;;;;;9.60;95.40;;;;;;4236181;27;19931;-53
2022/01/19 11:52:40;;;;;;;;;;;9.80;95.70;;;;;;4235860;27;19935;-54
2022/01/19 11:54:42;;;;;;;;;;;9.90;95.00;;;;;;4237889;27;20018;-53
2022/01/19 11:56:59;;;;;;;;;;;9.60;94.60;;;;;;4230947;27;19928;-53
2022/01/19 11:59:04;;;;;;;;;;;9.60;95.10;;;;;;4241440;27;19923;-53
2022/01/19 12:01:19;;;;;;;;;;;9.80;94.80;;;;;;4237029;27;19923;-54
2022/01/19 12:03:26;;;;;;;;;;;9.90;94.80;;;;;;4239030;27;19976;-53
2022/01/19 12:05:50;;;;;;;;;;;9.90;94.30;;;;;;4246485;27;20509;-53
2022/01/19 12:07:55;;;;;;;;;;;9.80;94.60;;;;;;4237805;27;19938;-53
2022/01/19 12:09:57;;;;;;;;;;;10.00;94.40;;;;;;4236458;27;20322;-52
2022/01/19 12:12:20;;;;;;;;;;;9.80;94.00;;;;;;4234834;27;19923;-53
2022/01/19 12:14:33;;;;;;;;;;;9.90;94.50;;;;;;4209370;28;19924;-53
2022/01/19 12:18:43;;;;;;;;;;;10.00;94.00;;;;;;4235668;27;19933;-54
2022/01/19 12:20:49;;;;;;;;;;;9.80;94.50;;;;;;4237416;27;19950;-53
2022/01/19 12:22:51;;;;;;;;;;;10.00;94.30;;;;;;4242004;27;19965;-53
2022/01/19 12:24:57;;;;;;;;;;;9.80;94.00;;;;;;4230395;27;20010;-53
2022/01/19 12:27:07;;;;;;;;;;;9.80;93.90;;;;;;4244244;27;20018;-53
2022/01/19 12:29:09;;;;;;;;;;;9.80;94.50;;;;;;4232986;27;20475;-52
2022/01/19 12:31:29;;;;;;;;;;;9.80;95.00;;;;;;4241783;27;19958;-52
2022/01/19 12:33:32;;;;;;;;;;;9.70;94.60;;;;;;4230915;27;20027;-53
2022/01/19 12:35:35;;;;;;;;;;;9.80;95.10;;;;;;4243391;27;20011;-52
2022/01/19 12:37:43;;;;;;;;;;;9.70;94.40;;;;;;4235447;27;19951;-51
2022/01/19 12:39:46;;;;;;;;;;;9.70;95.60;;;;;;4235829;27;19945;-52
2022/01/19 12:41:59;;;;;;;;;;;9.90;94.70;;;;;;4231904;27;19928;-52
2022/01/19 12:44:21;;;;;;;;;;;9.70;94.30;;;;;;4234312;27;19927;-49
2022/01/19 12:46:36;;;;;;;;;;;9.50;94.30;;;;;;4230705;27;19924;-51
2022/01/19 12:48:46;;;;;;;;;;;9.50;94.70;;;;;;4227380;28;19928;-51
2022/01/19 12:50:48;;;;;;;;;;;9.60;94.70;;;;;;4232719;27;19928;-52
2022/01/19 12:52:55;;;;;;;;;;;9.70;95.10;;;;;;4224474;28;19927;-52
2022/01/19 12:55:00;;;;;;;;;;;9.80;94.70;;;;;;4230973;27;19934;-50
2022/01/19 12:57:03;;;;;;;;;;;9.90;95.00;;;;;;4243823;27;19923;-52
2022/01/19 12:59:07;;;;;;;;;;;9.90;94.80;;;;;;4236474;27;19935;-52
2022/01/19 13:01:10;;;;;;;;;;;10.10;95.00;;;;;;4228293;28;19924;-52
2022/01/19 13:03:13;;;;;;;;;;;9.90;94.50;;;;;;4233307;27;19970;-50
2022/01/19 13:05:18;;;;;;;;;;;9.70;94.90;;;;;;4243489;27;20348;-51
2022/01/19 13:07:22;;;;;;;;;;;9.80;95.20;;;;;;4233205;27;19963;-51
2022/01/19 13:09:34;;;;;;;;;;;9.80;94.90;;;;;;4243082;27;19954;-52
2022/01/19 13:11:40;;;;;;;;;;;9.90;95.70;;;;;;4232257;28;19923;-51
2022/01/19 13:14:02;;;;;;;;;;;10.20;95.20;;;;;;4234146;28;19966;-52
2022/01/19 13:16:06;;;;;;;;;;;10.00;94.90;;;;;;4236105;27;19934;-51
2022/01/19 13:18:09;;;;;;;;;;;9.80;94.80;;;;;;4233044;27;20387;-52
2022/01/19 13:20:14;;;;;;;;;;;9.80;95.30;;;;;;4241897;27;19927;-51
2022/01/19 13:22:16;;;;;;;;;;;9.80;95.20;;;;;;4248186;27;19927;-52
2022/01/19 13:24:25;;;;;;;;;;;9.90;95.70;;;;;;4236299;27;19928;-51